CheckWX is a tool to help pilots better visualize weather data.  It is not intended as a substitute for an official pre-flight weather briefing.

15:38:58 UTC

CYDQ TAF
Dawson Creek Airport
Dawson Creek, Canada
TAF CYDQ 241238Z 2413/2501 32008KT P6SM -RA SCT006 OVC012 TEMPO 2413/2416 4SM -RA BR OVC006 FM241600 30010KT P6SM BKN040 BKN090 TEMPO 2416/2501 P6SM -SHRA BKN020 PROB40 2420/2501 4SM TSRA BKN040CB RMK FCST BASED ON AUTO OBS. NXT FCST BY 241900Z

Jun-24@
13:00 UTC

Jun-24 @ 13:00 UTC

Jun-24@
16:00 UTC

Jun-24 @ 16:00 UTC

TAF CYDQ 241238Z 2413/2501 32008KT P6SM -RA SCT006 OVC012
Wind
  • 320° at 8 KTS
Conditions
Light Rain
Cloud Levels
  • Scattered at 600' AGL
  • Overcast at 1,200' AGL

Jun-24@
13:00 UTC

Jun-24 @ 13:00 UTC

Jun-24@
16:00 UTC

Jun-24 @ 16:00 UTC

TEMPO 2413/2416 4SM -RA BR OVC006

Temporary

Temporary Changes expected for less than half the time period

Conditions
Light Rain, Mist
Cloud Levels
  • Overcast at 600' AGL

Jun-24@
16:00 UTC

Jun-24 @ 16:00 UTC

Jun-25@
01:00 UTC

Jun-25 @ 01:00 UTC

FM241600 30010KT P6SM BKN040 BKN090

From

From Standard forecast or significant change

Wind
  • 300° at 10 KTS
Cloud Levels
  • Broken at 4,000' AGL
  • Broken at 9,000' AGL

Jun-24@
16:00 UTC

Jun-24 @ 16:00 UTC

Jun-25@
01:00 UTC

Jun-25 @ 01:00 UTC

TEMPO 2416/2501 P6SM -SHRA BKN020

Temporary

Temporary Changes expected for less than half the time period

Conditions
Light Rain
Cloud Levels
  • Broken at 2,000' AGL

Jun-24@
20:00 UTC

Jun-24 @ 20:00 UTC

Jun-25@
01:00 UTC

Jun-25 @ 01:00 UTC

PROB40 2420/2501 4SM TSRA BKN040CB RMK FCST BASED ON AUTO OBS. NXT FCST BY 241900Z

Probable - 40% Likelihood

Probable - 40% Likelihood during this time.

Conditions
Thunderstorm, Rain
Cloud Levels
  • Broken at 4,000' AGL